^^
Saratoga-Weather Station Historical Data
Daily Summary for January 27, 2020 Units:  Metric    English   Both
Daily Weekly Monthly Yearly Custom
  High: Low: Average:
Temperature: 7.5 °C 4.7 °C 6.7 °C
Dew Point: 6.5 °C 4.5 °C 6 °C
Humidity: 99% 93% 95%
Wind Speed: 13km/h 0km/h 0.6km/h
Wind Gust: 19.3km/h - -
Wind- - SSE
Pressure: 1016.3 hPa 999.7 hPa -
Precipitation: 14.7 mm    
Historical Graphs
 
 
Tabular Data for January 27, 2020
Time Temperature Dew Point Pressure Wind Wind Speed Wind Gust Humidity Rainfall Rate (Hourly) solar
00:04 4.9 °C 4.6 °C 1016.3 hPa Calm   1.6 km/h 98% 0.0 mm 0 W/m2
00:09 4.8 °C 4.5 °C 1015.9 hPa Calm     98% 0.0 mm 0 W/m2
00:14 4.7 °C 4.6 °C 1016.3 hPa Calm   1.6 km/h 99% 0.0 mm 0 W/m2
00:19 4.8 °C 4.5 °C 1016.3 hPa Calm     98% 0.0 mm 0 W/m2
00:24 4.8 °C 4.7 °C 1016.3 hPa Calm   3.2 km/h 99% 0.0 mm 0 W/m2
00:29 4.7 °C 4.6 °C 1016.3 hPa Calm   1.6 km/h 99% 0.0 mm 0 W/m2
00:34 4.7 °C 4.6 °C 1016.3 hPa Calm   3.2 km/h 99% 0.0 mm 0 W/m2
00:39 4.8 °C 4.5 °C 1015.9 hPa Calm     98% 0.0 mm 0 W/m2
00:45 5 °C 4.9 °C 1015.9 hPa Calm   6.4 km/h 99% 0.0 mm 0 W/m2
00:50 5.3 °C 5 °C 1015.9 hPa Calm     98% 0.0 mm 0 W/m2
00:55 5.3 °C 5.2 °C 1015.9 hPa Calm   6.4 km/h 99% 0.0 mm 0 W/m2
01:00 5.4 °C 5.3 °C 1015.9 hPa Calm   1.6 km/h 99% 0.0 mm 0 W/m2
01:05 5.4 °C 5.3 °C 1015.9 hPa Calm     99% 0.0 mm 0 W/m2
01:10 5.4 °C 5.3 °C 1015.9 hPa Calm     99% 0.0 mm 0 W/m2
01:15 5.4 °C 5.3 °C 1015.6 hPa Calm     99% 0.0 mm 0 W/m2
01:20 5.4 °C 5.1 °C 1015.6 hPa Calm   3.2 km/h 98% 0.0 mm 0 W/m2
01:25 5.4 °C 5.1 °C 1015.6 hPa Calm   1.6 km/h 98% 0.0 mm 0 W/m2
01:30 5.5 °C 5.2 °C 1015.6 hPa Calm   4.8 km/h 98% 0.0 mm 0 W/m2
01:35 5.4 °C 5.1 °C 1015.9 hPa Calm     98% 0.0 mm 0 W/m2
01:40 5.4 °C 5.1 °C 1015.9 hPa Calm   1.6 km/h 98% 0.0 mm 0 W/m2
01:45 5.2 °C 5.1 °C 1015.9 hPa Calm     99% 0.0 mm 0 W/m2
01:50 5.2 °C 5.1 °C 1015.9 hPa Calm     99% 0.0 mm 0 W/m2
01:55 5.3 °C 5.2 °C 1015.6 hPa West 4.7 km/h 4.8 km/h 99% 0.0 mm 0 W/m2
02:00 5.3 °C 5 °C 1015.6 hPa Calm   1.6 km/h 98% 0.0 mm 0 W/m2
02:05 5.3 °C 5 °C 1015.6 hPa WSW 4.8 km/h 4.8 km/h 98% 0.0 mm 0 W/m2
02:10 5.4 °C 5.1 °C 1015.6 hPa Calm     98% 0.0 mm 0 W/m2
02:15 5.5 °C 5.2 °C 1015.6 hPa SSE 1.4 km/h 11.3 km/h 98% 0.0 mm 0 W/m2
02:20 5.6 °C 5.5 °C 1015.6 hPa Calm     99% 0.0 mm 0 W/m2
02:25 5.6 °C 5.3 °C 1015.6 hPa Calm   6.4 km/h 98% 0.0 mm 0 W/m2
02:30 5.5 °C 5.2 °C 1015.6 hPa Calm   3.2 km/h 98% 0.0 mm 0 W/m2
02:35 5.6 °C 5.3 °C 1015.2 hPa Calm   4.8 km/h 98% 0.0 mm 0 W/m2
02:40 5.7 °C 5.4 °C 1015.2 hPa NE 1.4 km/h 4.8 km/h 98% 0.0 mm 0 W/m2
02:45 5.7 °C 5.4 °C 1015.2 hPa ENE 4.7 km/h 6.4 km/h 98% 0.0 mm 0 W/m2
02:50 5.8 °C 5.5 °C 1015.2 hPa Calm   1.6 km/h 98% 0.0 mm 0 W/m2
02:55 5.8 °C 5.5 °C 1015.2 hPa NNW 1.4 km/h 6.4 km/h 98% 0.0 mm 0 W/m2
03:00 5.8 °C 5.5 °C 1015.2 hPa Calm     98% 0.0 mm 0 W/m2
03:05 5.9 °C 5.6 °C 1015.2 hPa Calm   6.4 km/h 98% 0.0 mm 0 W/m2
03:10 5.9 °C 5.6 °C 1015.2 hPa Calm   3.2 km/h 98% 0.0 mm 0 W/m2
03:15 5.8 °C 5.5 °C 1014.9 hPa Calm   4.8 km/h 98% 0.0 mm 0 W/m2
03:20 5.9 °C 5.6 °C 1014.9 hPa NNE 3.2 km/h 3.2 km/h 98% 0.0 mm 0 W/m2
03:25 5.9 °C 5.6 °C 1014.9 hPa Calm     98% 0.0 mm 0 W/m2
03:30 6 °C 5.7 °C 1014.9 hPa Calm   9.7 km/h 98% 0.0 mm 0 W/m2
03:35 6 °C 5.7 °C 1014.6 hPa Calm     98% 0.0 mm 0 W/m2
03:40 6.1 °C 5.8 °C 1014.6 hPa NE 4.7 km/h 8 km/h 98% 0.0 mm 0 W/m2
03:45 6.1 °C 5.8 °C 1014.6 hPa Calm     98% 0.0 mm 0 W/m2
03:50 6.2 °C 5.8 °C 1014.6 hPa Calm   1.6 km/h 97% 0.0 mm 0 W/m2
03:55 6.2 °C 5.8 °C 1014.6 hPa Calm   4.8 km/h 97% 0.0 mm 0 W/m2
04:00 6.2 °C 5.8 °C 1014.2 hPa ENE 4.7 km/h 4.8 km/h 97% 0.0 mm 0 W/m2
04:05 6.3 °C 5.9 °C 1014.2 hPa Calm     97% 0.0 mm 0 W/m2
04:11 6.2 °C 5.8 °C 1014.2 hPa ENE 3.2 km/h 4.8 km/h 97% 0.0 mm 0 W/m2
04:16 6.2 °C 5.8 °C 1014.2 hPa ENE 3.2 km/h 4.8 km/h 97% 0.0 mm 0 W/m2
04:21 6.1 °C 5.7 °C 1014.2 hPa Calm     97% 0.0 mm 0 W/m2
04:26 6.1 °C 5.7 °C 1014.2 hPa Calm     97% 0.0 mm 0 W/m2
04:31 6.2 °C 5.8 °C 1014.2 hPa NNE 1.4 km/h 1.6 km/h 97% 0.0 mm 0 W/m2
04:36 6.2 °C 5.6 °C 1014.2 hPa Calm   1.6 km/h 96% 0.0 mm 0 W/m2
04:41 6.2 °C 5.6 °C 1014.2 hPa Calm   4.8 km/h 96% 0.0 mm 0 W/m2
04:46 6.3 °C 5.7 °C 1014.2 hPa Calm   1.6 km/h 96% 0.0 mm 0 W/m2
04:51 6.3 °C 5.7 °C 1014.2 hPa Calm   8 km/h 96% 0.0 mm 0 W/m2
04:56 6.4 °C 5.8 °C 1014.2 hPa Calm   3.2 km/h 96% 0.0 mm 0 W/m2
05:01 6.6 °C 6 °C 1014.2 hPa Calm   8 km/h 96% 0.0 mm 0 W/m2
05:06 6.7 °C 6.1 °C 1013.9 hPa Calm     96% 0.0 mm 0 W/m2
05:11 6.8 °C 6.1 °C 1013.9 hPa Calm   1.6 km/h 95% 0.0 mm 0 W/m2
05:16 6.9 °C 6.2 °C 1013.9 hPa Calm     95% 0.0 mm 0 W/m2
05:21 7 °C 6.1 °C 1013.9 hPa Calm   11.3 km/h 94% 0.0 mm 0 W/m2
05:26 7 °C 6.1 °C 1013.5 hPa Calm   4.8 km/h 94% 0.0 mm 0 W/m2
05:31 7.1 °C 6.2 °C 1013.5 hPa Calm   11.3 km/h 94% 0.0 mm 0 W/m2
05:36 7.1 °C 6 °C 1013.5 hPa Calm   4.8 km/h 93% 0.0 mm 0 W/m2
05:41 7.1 °C 6 °C 1013.5 hPa Calm   4.8 km/h 93% 0.0 mm 0 W/m2
05:47 7.1 °C 6 °C 1013.5 hPa NE 4.7 km/h 4.8 km/h 93% 0.0 mm 0 W/m2
05:52 7.1 °C 6 °C 1013.5 hPa Calm   1.6 km/h 93% 0.0 mm 0 W/m2
05:57 7.1 °C 6 °C 1013.5 hPa Calm     93% 0.0 mm 0 W/m2
06:02 7.1 °C 6 °C 1013.5 hPa Calm   1.6 km/h 93% 0.0 mm 0 W/m2
06:07 7.2 °C 6.1 °C 1013.5 hPa Calm   1.6 km/h 93% 0.0 mm 0 W/m2
06:12 7.1 °C 6 °C 1013.5 hPa North 3.2 km/h 4.8 km/h 93% 0.0 mm 0 W/m2
06:17 7.1 °C 6 °C 1013.5 hPa Calm   1.6 km/h 93% 0.2 mm 0 W/m2
06:22 7.1 °C 6 °C 1013.2 hPa Calm   1.6 km/h 93% 0.2 mm 0 W/m2
06:27 7.1 °C 6 °C 1013.2 hPa Calm   3.2 km/h 93% 0.5 mm 0 W/m2
06:32 7.1 °C 6 °C 1013.2 hPa ENE 1.4 km/h 1.6 km/h 93% 0.5 mm 0 W/m2
06:37 7.1 °C 6 °C 1013.2 hPa Calm   1.6 km/h 93% 0.5 mm 0 W/m2
06:42 7 °C 5.9 °C 1013.2 hPa Calm   9.7 km/h 93% 0.5 mm 0 W/m2
06:47 7 °C 5.9 °C 1012.9 hPa NNW 1.4 km/h 4.8 km/h 93% 0.5 mm 0 W/m2
06:52 6.9 °C 6 °C 1013.2 hPa Calm   8 km/h 94% 0.5 mm 0 W/m2
06:57 6.9 °C 5.8 °C 1013.2 hPa Calm   4.8 km/h 93% 0.5 mm 0 W/m2
07:02 6.9 °C 6 °C 1012.9 hPa Calm   6.4 km/h 94% 0.5 mm 0 W/m2
07:07 6.8 °C 5.9 °C 1013.2 hPa Calm     94% 0.5 mm 0 W/m2
07:12 6.8 °C 5.9 °C 1012.9 hPa Calm   1.6 km/h 94% 0.5 mm 0 W/m2
07:17 6.8 °C 5.9 °C 1012.9 hPa Calm     94% 0.5 mm 0 W/m2
07:22 6.7 °C 5.8 °C 1012.9 hPa NNE 1.4 km/h 1.6 km/h 94% 0.5 mm 0 W/m2
07:27 6.7 °C 5.8 °C 1012.9 hPa East 4.7 km/h 11.3 km/h 94% 0.5 mm 0 W/m2
07:32 6.7 °C 5.8 °C 1012.9 hPa Calm     94% 0.2 mm 0 W/m2
07:37 6.7 °C 5.8 °C 1012.5 hPa Calm   1.6 km/h 94% 0.2 mm 0 W/m2
07:42 6.7 °C 5.8 °C 1012.9 hPa North 3.2 km/h 3.2 km/h 94% 0.2 mm 0 W/m2
07:47 6.7 °C 5.8 °C 1012.5 hPa Calm   3.2 km/h 94% 0.2 mm 0 W/m2
07:52 6.7 °C 5.8 °C 1012.5 hPa WNW 3.2 km/h 8 km/h 94% 0.2 mm 0 W/m2
07:57 6.7 °C 5.8 °C 1012.5 hPa NW 1.4 km/h 6.4 km/h 94% 0.2 mm 0 W/m2
08:02 6.8 °C 5.9 °C 1012.2 hPa NNE 6.4 km/h 8 km/h 94% 0.2 mm 0 W/m2
08:07 6.7 °C 5.8 °C 1012.2 hPa Calm   1.6 km/h 94% 0.2 mm 0 W/m2
08:12 6.7 °C 5.8 °C 1012.2 hPa Calm   1.6 km/h 94% 0.2 mm 0 W/m2
08:18 6.8 °C 5.9 °C 1012.2 hPa Calm     94% 0.2 mm 0 W/m2
08:23 6.8 °C 5.9 °C 1012.2 hPa Calm   3.2 km/h 94% 0.5 mm 0 W/m2
08:28 6.8 °C 5.9 °C 1012.2 hPa NNE 7.9 km/h 9.7 km/h 94% 0.2 mm 0 W/m2
08:33 6.8 °C 5.9 °C 1012.2 hPa Calm     94% 0.2 mm 5 W/m2
08:38 6.8 °C 5.9 °C 1012.2 hPa Calm   9.7 km/h 94% 0.2 mm 5 W/m2
08:43 6.8 °C 5.9 °C 1012.2 hPa NNE 4.7 km/h 4.8 km/h 94% 0.2 mm 0 W/m2
08:48 6.7 °C 5.8 °C 1011.9 hPa Calm   3.2 km/h 94% 0.2 mm 5 W/m2
08:53 6.8 °C 5.9 °C 1011.9 hPa Calm   4.8 km/h 94% 0.2 mm 7 W/m2
08:58 6.8 °C 5.9 °C 1011.9 hPa Calm   6.4 km/h 94% 0.2 mm 11 W/m2
09:03 6.8 °C 5.9 °C 1011.9 hPa Calm   1.6 km/h 94% 0.2 mm 9 W/m2
09:08 6.8 °C 5.9 °C 1011.9 hPa Calm   8 km/h 94% 0.5 mm 9 W/m2
09:13 6.8 °C 5.9 °C 1011.9 hPa Calm   12.9 km/h 94% 0.5 mm 12 W/m2
09:18 6.8 °C 5.9 °C 1011.9 hPa Calm   1.6 km/h 94% 0.5 mm 16 W/m2
09:23 6.9 °C 6 °C 1011.9 hPa Calm   11.3 km/h 94% 0.5 mm 14 W/m2
09:28 6.8 °C 5.9 °C 1011.9 hPa Calm     94% 0.5 mm 14 W/m2
09:33 6.8 °C 5.9 °C 1011.9 hPa Calm   1.6 km/h 94% 0.8 mm 18 W/m2
09:38 6.8 °C 5.9 °C 1011.9 hPa Calm   6.4 km/h 94% 1.0 mm 28 W/m2
09:43 6.8 °C 5.9 °C 1011.9 hPa Calm   6.4 km/h 94% 1.0 mm 19 W/m2
09:49 6.8 °C 5.9 °C 1011.5 hPa Calm     94% 1.3 mm 21 W/m2
09:54 6.8 °C 5.9 °C 1011.5 hPa Calm   3.2 km/h 94% 1.3 mm 21 W/m2
09:59 6.8 °C 5.9 °C 1011.5 hPa Calm   11.3 km/h 94% 1.3 mm 26 W/m2
10:04 6.8 °C 6.1 °C 1011.2 hPa West 4.7 km/h 6.4 km/h 95% 1.3 mm 19 W/m2
10:09 6.8 °C 6.1 °C 1011.2 hPa Calm     95% 1.0 mm 14 W/m2
10:14 6.8 °C 6.1 °C 1011.2 hPa Calm   8 km/h 95% 1.0 mm 18 W/m2
10:19 6.8 °C 6.1 °C 1011.2 hPa Calm   4.8 km/h 95% 0.8 mm 28 W/m2
10:24 6.8 °C 6.1 °C 1011.2 hPa Calm   1.6 km/h 95% 0.8 mm 23 W/m2
10:29 6.8 °C 6.1 °C 1011.5 hPa Calm   4.8 km/h 95% 0.8 mm 23 W/m2
10:34 6.9 °C 6.2 °C 1011.2 hPa Calm   6.4 km/h 95% 0.5 mm 28 W/m2
10:39 6.9 °C 6.2 °C 1011.2 hPa Calm     95% 0.5 mm 35 W/m2
10:44 6.9 °C 6.2 °C 1011.2 hPa Calm   1.6 km/h 95% 0.5 mm 32 W/m2
10:49 6.9 °C 6.2 °C 1011.2 hPa South 1.4 km/h 12.9 km/h 95% 0.5 mm 33 W/m2
10:55 6.9 °C 6.2 °C 1011.2 hPa Calm   8 km/h 95% 0.5 mm 49 W/m2
11:00 7 °C 6.3 °C 1011.2 hPa Calm   1.6 km/h 95% 0.5 mm 67 W/m2
11:05 7 °C 6.3 °C 1011.2 hPa Calm   8 km/h 95% 0.5 mm 44 W/m2
11:10 7.1 °C 6.4 °C 1010.8 hPa Calm   6.4 km/h 95% 0.8 mm 42 W/m2
11:15 7.1 °C 6.4 °C 1010.8 hPa NE 1.4 km/h 11.3 km/h 95% 0.8 mm 44 W/m2
11:20 7.1 °C 6.4 °C 1010.8 hPa Calm   1.6 km/h 95% 0.8 mm 63 W/m2
11:25 7.1 °C 6.4 °C 1010.8 hPa Calm   1.6 km/h 95% 0.8 mm 58 W/m2
11:30 7.2 °C 6.5 °C 1010.8 hPa Calm   3.2 km/h 95% 0.8 mm 49 W/m2
11:35 7.2 °C 6.5 °C 1010.8 hPa Calm     95% 0.8 mm 44 W/m2
11:40 7.2 °C 6.5 °C 1010.8 hPa Calm     95% 1.0 mm 40 W/m2
11:46 7.2 °C 6.5 °C 1010.5 hPa Calm   4.8 km/h 95% 1.0 mm 40 W/m2
11:51 7.2 °C 6.5 °C 1010.5 hPa Calm   6.4 km/h 95% 1.0 mm 53 W/m2
11:56 7.2 °C 6.5 °C 1010.5 hPa Calm   3.2 km/h 95% 1.3 mm 40 W/m2
12:01 7.2 °C 6.5 °C 1010.2 hPa Calm   8 km/h 95% 1.0 mm 39 W/m2
12:06 7.2 °C 6.5 °C 1010.2 hPa Calm   4.8 km/h 95% 1.3 mm 33 W/m2
12:11 7.2 °C 6.5 °C 1010.2 hPa Calm     95% 1.3 mm 32 W/m2
12:16 7.2 °C 6.5 °C 1010.2 hPa Calm   3.2 km/h 95% 1.3 mm 40 W/m2
12:21 7.2 °C 6.5 °C 1009.8 hPa Calm   1.6 km/h 95% 1.5 mm 40 W/m2
12:26 7.2 °C 6.5 °C 1009.8 hPa Calm   11.3 km/h 95% 1.5 mm 30 W/m2
12:31 7.2 °C 6.5 °C 1009.8 hPa Calm     95% 1.5 mm 26 W/m2
12:36 7.2 °C 6.5 °C 1009.8 hPa NW 1.4 km/h 8 km/h 95% 1.8 mm 32 W/m2
12:41 7.2 °C 6.5 °C 1009.5 hPa SSW 4.7 km/h 4.8 km/h 95% 1.8 mm 42 W/m2
12:46 7.2 °C 6.5 °C 1009.5 hPa NNE 1.4 km/h 1.6 km/h 95% 1.8 mm 44 W/m2
12:51 7.2 °C 6.5 °C 1009.5 hPa Calm   4.8 km/h 95% 2.0 mm 37 W/m2
12:56 7.2 °C 6.5 °C 1009.5 hPa Calm   4.8 km/h 95% 2.0 mm 35 W/m2
13:01 7.2 °C 6.5 °C 1009.5 hPa Calm     95% 2.3 mm 35 W/m2
13:06 7.2 °C 6.5 °C 1009.1 hPa Calm     95% 2.3 mm 28 W/m2
13:11 7.2 °C 6.5 °C 1009.1 hPa NW 1.4 km/h 4.8 km/h 95% 2.3 mm 32 W/m2
13:16 7.2 °C 6.5 °C 1009.1 hPa Calm   1.6 km/h 95% 2.3 mm 39 W/m2
13:21 7.2 °C 6.5 °C 1009.1 hPa ENE 3.2 km/h 3.2 km/h 95% 2.3 mm 39 W/m2
13:26 7.2 °C 6.5 °C 1009.1 hPa Calm     95% 2.3 mm 40 W/m2
13:31 7.2 °C 6.5 °C 1008.8 hPa Calm     95% 2.3 mm 32 W/m2
13:36 7.2 °C 6.5 °C 1008.8 hPa Calm   1.6 km/h 95% 2.0 mm 32 W/m2
13:41 7.1 °C 6.4 °C 1008.8 hPa Calm   6.4 km/h 95% 2.0 mm 28 W/m2
13:46 7.1 °C 6.4 °C 1008.5 hPa NNE 1.4 km/h 9.7 km/h 95% 1.8 mm 26 W/m2
13:51 7.1 °C 6.4 °C 1008.5 hPa West 3.2 km/h 6.4 km/h 95% 1.5 mm 25 W/m2
13:56 7 °C 6.3 °C 1008.5 hPa Calm     95% 1.5 mm 25 W/m2
14:01 7 °C 6.3 °C 1008.5 hPa WSW 7.9 km/h 8 km/h 95% 1.3 mm 30 W/m2
14:06 7 °C 6.3 °C 1008.5 hPa Calm     95% 1.0 mm 30 W/m2
14:11 7 °C 6.3 °C 1008.1 hPa Calm     95% 0.8 mm 28 W/m2
14:16 7 °C 6.3 °C 1008.1 hPa Calm     95% 0.8 mm 37 W/m2
14:21 7 °C 6.3 °C 1007.8 hPa Calm   9.7 km/h 95% 0.8 mm 40 W/m2
14:26 7.1 °C 6.4 °C 1007.8 hPa Calm   1.6 km/h 95% 0.5 mm 47 W/m2
14:31 7.1 °C 6.4 °C 1007.8 hPa Calm   9.7 km/h 95% 0.5 mm 46 W/m2
14:36 7.1 °C 6.4 °C 1007.8 hPa Calm     95% 0.5 mm 35 W/m2
14:41 7.1 °C 6.4 °C 1007.8 hPa Calm   1.6 km/h 95% 0.5 mm 42 W/m2
14:46 7.1 °C 6.4 °C 1007.8 hPa Calm   3.2 km/h 95% 0.5 mm 26 W/m2
14:51 7.1 °C 6.4 °C 1007.8 hPa Calm   1.6 km/h 95% 0.5 mm 26 W/m2
14:56 7.1 °C 6.4 °C 1007.8 hPa Calm     95% 0.5 mm 30 W/m2
15:01 7.1 °C 6.4 °C 1007.5 hPa Calm   1.6 km/h 95% 0.8 mm 21 W/m2
15:06 7.1 °C 6.4 °C 1007.5 hPa Calm   1.6 km/h 95% 0.8 mm 25 W/m2
15:11 7.1 °C 6.4 °C 1007.5 hPa WSW 1.4 km/h 1.6 km/h 95% 1.0 mm 25 W/m2
15:16 7.1 °C 6.4 °C 1007.5 hPa Calm   6.4 km/h 95% 1.0 mm 23 W/m2
15:21 7.1 °C 6.4 °C 1007.5 hPa Calm   3.2 km/h 95% 1.0 mm 26 W/m2
15:26 7.1 °C 6.4 °C 1007.5 hPa Calm   6.4 km/h 95% 1.3 mm 23 W/m2
15:31 7.1 °C 6.4 °C 1007.5 hPa Calm     95% 1.0 mm 19 W/m2
15:37 7.1 °C 6.4 °C 1007.5 hPa NNW 6.4 km/h 6.4 km/h 95% 1.3 mm 14 W/m2
15:42 7 °C 6.3 °C 1007.5 hPa Calm     95% 1.3 mm 12 W/m2
15:47 7.1 °C 6.4 °C 1007.1 hPa Calm     95% 1.3 mm 16 W/m2
15:52 7.1 °C 6.4 °C 1007.1 hPa Calm   3.2 km/h 95% 1.3 mm 19 W/m2
15:57 7.1 °C 6.4 °C 1007.1 hPa Calm   6.4 km/h 95% 1.5 mm 16 W/m2
16:02 7.1 °C 6.4 °C 1006.8 hPa Calm     95% 1.3 mm 18 W/m2
16:07 7.1 °C 6.4 °C 1006.8 hPa Calm   17.7 km/h 95% 1.0 mm 21 W/m2
16:12 7.1 °C 6.4 °C 1006.8 hPa Calm     95% 1.0 mm 21 W/m2
16:17 7.1 °C 6.4 °C 1006.8 hPa Calm   12.9 km/h 95% 0.8 mm 21 W/m2
16:22 7.1 °C 6.4 °C 1006.8 hPa Calm   4.8 km/h 95% 1.0 mm 18 W/m2
16:27 7.1 °C 6.4 °C 1006.4 hPa Calm   3.2 km/h 95% 0.8 mm 16 W/m2
16:32 7.1 °C 6.4 °C 1006.4 hPa NNE 1.4 km/h 9.7 km/h 95% 0.8 mm 12 W/m2
16:37 7.1 °C 6.4 °C 1006.4 hPa Calm     95% 0.5 mm 11 W/m2
16:42 7.1 °C 6.4 °C 1006.4 hPa ESE 1.4 km/h 3.2 km/h 95% 0.5 mm 9 W/m2
16:47 7.1 °C 6.4 °C 1006.4 hPa Calm   1.6 km/h 95% 0.5 mm 9 W/m2
16:52 7.1 °C 6.4 °C 1006.4 hPa Calm   1.6 km/h 95% 0.5 mm 7 W/m2
16:57 7.1 °C 6.4 °C 1006.4 hPa Calm     95% 0.5 mm 7 W/m2
17:02 7 °C 6.3 °C 1006.4 hPa Calm     95% 0.5 mm 5 W/m2
17:07 7 °C 6.3 °C 1006.1 hPa Calm   6.4 km/h 95% 0.5 mm 0 W/m2
17:12 7 °C 6.3 °C 1006.1 hPa Calm     95% 0.5 mm 0 W/m2
17:17 7 °C 6.3 °C 1006.1 hPa Calm     95% 0.5 mm 0 W/m2
17:22 7 °C 6.3 °C 1006.1 hPa Calm     95% 0.5 mm 0 W/m2
17:27 7 °C 6.3 °C 1006.1 hPa Calm   4.8 km/h 95% 0.5 mm 0 W/m2
17:32 7 °C 6.3 °C 1006.1 hPa Calm   4.8 km/h 95% 0.8 mm 0 W/m2
17:37 7 °C 6.3 °C 1006.1 hPa Calm   3.2 km/h 95% 0.8 mm 0 W/m2
17:42 7 °C 6.3 °C 1005.8 hPa Calm     95% 1.0 mm 0 W/m2
17:47 7 °C 6.3 °C 1005.8 hPa Calm   4.8 km/h 95% 1.0 mm 0 W/m2
17:52 7 °C 6.3 °C 1005.8 hPa Calm   1.6 km/h 95% 1.0 mm 0 W/m2
17:57 7 °C 6.3 °C 1005.8 hPa Calm     95% 1.0 mm 0 W/m2
18:02 6.9 °C 6.2 °C 1005.8 hPa WNW 4.7 km/h 11.3 km/h 95% 1.0 mm 0 W/m2
18:07 6.9 °C 6.2 °C 1005.8 hPa Calm   19.3 km/h 95% 1.3 mm 0 W/m2
18:12 6.9 °C 6 °C 1005.8 hPa NW 3.2 km/h 6.4 km/h 94% 1.3 mm 0 W/m2
18:18 6.8 °C 5.9 °C 1005.4 hPa Calm   19.3 km/h 94% 1.3 mm 0 W/m2
18:23 6.8 °C 5.9 °C 1005.4 hPa Calm   1.6 km/h 94% 1.3 mm 0 W/m2
18:28 6.7 °C 5.8 °C 1005.4 hPa Calm   4.8 km/h 94% 1.3 mm 0 W/m2
18:33 6.6 °C 5.7 °C 1005.4 hPa West 1.4 km/h 6.4 km/h 94% 1.0 mm 0 W/m2
18:38 6.6 °C 5.7 °C 1005.1 hPa Calm     94% 1.0 mm 0 W/m2
18:43 6.6 °C 5.7 °C 1004.7 hPa Calm     94% 0.8 mm 0 W/m2
18:48 6.5 °C 5.6 °C 1004.7 hPa Calm     94% 0.8 mm 0 W/m2
18:53 6.4 °C 5.5 °C 1004.7 hPa Calm     94% 0.5 mm 0 W/m2
18:58 6.4 °C 5.5 °C 1004.7 hPa Calm   3.2 km/h 94% 0.8 mm 0 W/m2
19:03 6.4 °C 5.5 °C 1004.7 hPa Calm   1.6 km/h 94% 0.5 mm 0 W/m2
19:08 6.4 °C 5.5 °C 1004.7 hPa Calm   1.6 km/h 94% 0.5 mm 0 W/m2
19:13 6.4 °C 5.5 °C 1004.4 hPa Calm     94% 0.5 mm 0 W/m2
19:18 6.4 °C 5.5 °C 1004.4 hPa North 1.4 km/h 3.2 km/h 94% 0.5 mm 0 W/m2
19:23 6.4 °C 5.5 °C 1004.1 hPa Calm     94% 0.5 mm 0 W/m2
19:28 6.4 °C 5.7 °C 1004.1 hPa Calm     95% 0.5 mm 0 W/m2
19:33 6.4 °C 5.7 °C 1004.1 hPa Calm   6.4 km/h 95% 0.5 mm 0 W/m2
19:38 6.4 °C 5.7 °C 1004.1 hPa Calm     95% 0.5 mm 0 W/m2
19:43 6.4 °C 5.7 °C 1003.7 hPa Calm   1.6 km/h 95% 0.5 mm 0 W/m2
19:48 6.5 °C 5.8 °C 1003.7 hPa East 3.2 km/h 6.4 km/h 95% 0.5 mm 0 W/m2
19:53 6.5 °C 5.8 °C 1003.7 hPa Calm   1.6 km/h 95% 0.5 mm 0 W/m2
19:58 6.6 °C 5.9 °C 1003.4 hPa Calm   4.8 km/h 95% 0.5 mm 0 W/m2
20:03 6.6 °C 5.9 °C 1003.4 hPa Calm   1.6 km/h 95% 0.5 mm 0 W/m2
20:08 6.6 °C 5.9 °C 1003.4 hPa Calm   4.8 km/h 95% 0.5 mm 0 W/m2
20:13 6.6 °C 5.9 °C 1003.4 hPa West 1.4 km/h 3.2 km/h 95% 0.2 mm 0 W/m2
20:18 6.7 °C 6 °C 1003.4 hPa Calm   12.9 km/h 95% 0.2 mm 0 W/m2
20:23 6.7 °C 6 °C 1003.0 hPa Calm     95% 0.5 mm 0 W/m2
20:28 6.7 °C 6 °C 1003.0 hPa Calm   12.9 km/h 95% 0.5 mm 0 W/m2
20:33 6.7 °C 6 °C 1003.0 hPa Calm   8 km/h 95% 0.5 mm 0 W/m2
20:39 6.7 °C 6 °C 1003.0 hPa NE 1.4 km/h 17.7 km/h 95% 0.5 mm 0 W/m2
20:44 6.7 °C 6 °C 1002.7 hPa Calm     95% 0.5 mm 0 W/m2
20:49 6.7 °C 5.8 °C 1002.7 hPa Calm     94% 0.5 mm 0 W/m2
20:54 6.7 °C 5.8 °C 1002.7 hPa Calm     94% 0.8 mm 0 W/m2
20:59 6.7 °C 5.8 °C 1002.4 hPa Calm   8 km/h 94% 0.8 mm 0 W/m2
21:04 6.7 °C 5.8 °C 1002.4 hPa Calm   12.9 km/h 94% 0.8 mm 0 W/m2
21:09 6.7 °C 5.8 °C 1002.4 hPa Calm   8 km/h 94% 1.0 mm 0 W/m2
21:14 6.7 °C 5.8 °C 1002.0 hPa Calm   6.4 km/h 94% 1.3 mm 0 W/m2
21:19 6.7 °C 5.8 °C 1002.0 hPa Calm     94% 1.3 mm 0 W/m2
21:24 6.7 °C 5.8 °C 1002.0 hPa NW 1.4 km/h 4.8 km/h 94% 1.3 mm 0 W/m2
21:29 6.7 °C 5.8 °C 1002.0 hPa NE 7.9 km/h 12.9 km/h 94% 1.3 mm 0 W/m2
21:34 6.7 °C 5.8 °C 1002.0 hPa Calm     94% 1.3 mm 0 W/m2
21:39 6.8 °C 5.9 °C 1001.7 hPa Calm   14.5 km/h 94% 1.5 mm 0 W/m2
21:44 6.8 °C 5.9 °C 1001.7 hPa Calm   16.1 km/h 94% 1.3 mm 0 W/m2
21:49 6.8 °C 5.9 °C 1001.7 hPa Calm     94% 1.5 mm 0 W/m2
21:54 6.8 °C 5.9 °C 1001.4 hPa Calm     94% 1.3 mm 0 W/m2
21:59 6.8 °C 5.9 °C 1001.4 hPa Calm     94% 1.3 mm 0 W/m2
22:04 6.9 °C 6 °C 1001.4 hPa Calm   1.6 km/h 94% 1.3 mm 0 W/m2
22:09 6.9 °C 6 °C 1001.4 hPa Calm   1.6 km/h 94% 1.0 mm 0 W/m2
22:14 6.9 °C 6 °C 1001.0 hPa Calm   1.6 km/h 94% 0.8 mm 0 W/m2
22:19 6.9 °C 6 °C 1001.0 hPa Calm     94% 1.0 mm 0 W/m2
22:24 6.9 °C 5.8 °C 1000.7 hPa Calm   1.6 km/h 93% 0.8 mm 0 W/m2
22:29 6.9 °C 6 °C 1000.7 hPa NNE 11.3 km/h 11.3 km/h 94% 0.5 mm 0 W/m2
22:34 6.9 °C 6 °C 1000.7 hPa Calm     94% 0.5 mm 0 W/m2
22:39 6.9 °C 6 °C 1000.3 hPa NE 1.4 km/h 1.6 km/h 94% 0.5 mm 0 W/m2
22:44 6.9 °C 6 °C 1000.3 hPa Calm   3.2 km/h 94% 0.5 mm 0 W/m2
22:49 6.9 °C 6 °C 1000.3 hPa Calm   1.6 km/h 94% 0.5 mm 0 W/m2
22:54 6.9 °C 6 °C 1000.3 hPa Calm   6.4 km/h 94% 0.5 mm 0 W/m2
22:59 6.9 °C 6 °C 1000.3 hPa Calm   6.4 km/h 94% 0.5 mm 0 W/m2
23:04 6.9 °C 6 °C 1000.3 hPa Calm     94% 0.8 mm 0 W/m2
23:09 6.9 °C 6 °C 1000.0 hPa NE 1.4 km/h 1.6 km/h 94% 0.8 mm 0 W/m2
23:14 7 °C 6.3 °C 1000.0 hPa Calm   12.9 km/h 95% 0.8 mm 0 W/m2
23:19 7 °C 6.3 °C 1000.0 hPa Calm     95% 0.8 mm 0 W/m2
23:24 7.1 °C 6.4 °C 1000.0 hPa Calm   12.9 km/h 95% 0.8 mm 0 W/m2
23:29 7.2 °C 6.3 °C 1000.0 hPa WNW 1.4 km/h 11.3 km/h 94% 0.8 mm 0 W/m2
23:34 7.2 °C 6.3 °C 1000.0 hPa South 13 km/h 12.9 km/h 94% 0.8 mm 0 W/m2
23:39 7.3 °C 6.4 °C 1000.0 hPa Calm   16.1 km/h 94% 0.8 mm 0 W/m2
23:44 7.4 °C 6.5 °C 1000.0 hPa Calm     94% 0.5 mm 0 W/m2
23:49 7.4 °C 6.5 °C 1000.0 hPa Calm   4.8 km/h 94% 0.5 mm 0 W/m2
23:54 7.5 °C 6.4 °C 999.7 hPa Calm     93% 0.5 mm 0 W/m2
23:59 7.5 °C 6.4 °C 1000.0 hPa Calm   1.6 km/h 93% 0.5 mm 0 W/m2
Juneau County Weather
Compliments of Weather Underground - 4 mb